createdAt,value
2019-04-10T00:00:47.827Z,55.50
2019-04-10T00:03:27.951Z,55.80
2019-04-10T00:05:50.255Z,55.80
2019-04-10T00:08:20.490Z,55.50
2019-04-10T00:10:50.816Z,55.80
2019-04-10T00:13:20.934Z,56.00
2019-04-10T00:15:51.039Z,56.10
2019-04-10T00:18:22.046Z,56.40
2019-04-10T00:20:53.190Z,56.70
2019-04-10T00:23:23.563Z,56.60
2019-04-10T00:25:54.706Z,56.70
2019-04-10T00:28:25.515Z,56.70
2019-04-10T00:30:55.870Z,56.30
2019-04-10T00:33:27.026Z,56.10
2019-04-10T00:35:57.439Z,55.60
2019-04-10T00:38:27.562Z,55.70
2019-04-10T00:40:57.779Z,56.10
2019-04-10T00:43:27.902Z,56.90
2019-04-10T00:45:58.224Z,57.10
2019-04-10T00:48:28.347Z,57.10
2019-04-10T00:50:59.240Z,56.70
2019-04-10T00:53:29.651Z,57.60
2019-04-10T00:56:00.481Z,56.90
2019-04-10T00:58:30.654Z,57.00
2019-04-10T01:01:00.819Z,57.30
2019-04-10T01:03:44.249Z,57.50
2019-04-10T01:06:15.674Z,57.40
2019-04-10T01:08:46.386Z,57.40
2019-04-10T01:11:17.138Z,57.30
2019-04-10T01:13:50.165Z,57.50
2019-04-10T01:16:20.855Z,57.20
2019-04-10T01:18:51.266Z,56.90
2019-04-10T01:21:22.537Z,57.70
2019-04-10T01:23:53.243Z,57.40
2019-04-10T01:26:23.588Z,58.20
2019-04-10T01:28:54.259Z,57.70
2019-04-10T01:31:24.952Z,57.80
2019-04-10T01:33:55.071Z,57.90
2019-04-10T01:36:25.109Z,58.20
2019-04-10T01:38:55.167Z,58.60
2019-04-10T01:41:25.843Z,58.90
2019-04-10T01:43:57.276Z,59.20
2019-04-10T01:46:28.487Z,59.20
2019-04-10T01:48:59.540Z,59.20
2019-04-10T01:51:30.728Z,58.90
2019-04-10T01:54:02.599Z,59.00
2019-04-10T01:56:35.125Z,59.10
2019-04-10T01:59:05.647Z,59.20
2019-04-10T02:01:46.868Z,59.20
2019-04-10T02:04:16.986Z,59.40
2019-04-10T02:06:47.108Z,59.60
2019-04-10T02:09:17.328Z,59.80
2019-04-10T02:11:48.161Z,59.30
2019-04-10T02:14:18.397Z,59.40
2019-04-10T02:16:49.359Z,59.60
2019-04-10T02:19:19.653Z,59.50
2019-04-10T02:21:49.792Z,59.50
2019-04-10T02:24:19.893Z,59.60
2019-04-10T02:26:50.009Z,59.90
2019-04-10T02:29:20.128Z,59.80
2019-04-10T02:31:50.756Z,60.00
2019-04-10T02:34:23.198Z,60.30
2019-04-10T02:36:55.123Z,60.30
2019-04-10T02:39:32.398Z,60.40
2019-04-10T02:41:58.384Z,60.20
2019-04-10T02:44:30.613Z,60.20
2019-04-10T02:47:02.103Z,60.00
2019-04-10T02:49:32.355Z,59.60
2019-04-10T02:52:04.001Z,59.80
2019-04-10T02:54:35.739Z,60.20
2019-04-10T02:57:07.402Z,60.30
2019-04-10T02:59:37.753Z,60.20
2019-04-10T03:02:08.554Z,60.20
2019-04-10T03:04:40.363Z,59.90
2019-04-10T03:07:11.599Z,60.00
2019-04-10T03:09:56.233Z,59.90
2019-04-10T03:12:14.609Z,60.20
2019-04-10T03:14:47.355Z,60.40
2019-04-10T03:17:17.745Z,60.70
2019-04-10T03:19:48.019Z,61.30
2019-04-10T03:22:18.782Z,61.30
2019-04-10T03:24:49.179Z,61.30
2019-04-10T03:27:20.484Z,61.70
2019-04-10T03:29:51.845Z,61.90
2019-04-10T03:32:48.092Z,62.10
2019-04-10T03:35:31.234Z,62.20
2019-04-10T03:38:01.629Z,62.20
2019-04-10T03:40:31.885Z,62.40
2019-04-10T03:43:03.339Z,62.50
2019-04-10T03:45:34.736Z,62.70
2019-04-10T03:48:06.272Z,62.50
2019-04-10T03:50:36.560Z,62.70
2019-04-10T03:53:07.551Z,62.70
2019-04-10T03:55:37.986Z,63.60
2019-04-10T03:58:09.236Z,62.80
2019-04-10T04:00:40.420Z,62.50
2019-04-10T04:03:10.736Z,62.80
2019-04-10T04:05:40.859Z,63.40
2019-04-10T04:08:11.388Z,63.10
2019-04-10T04:10:42.597Z,63.10
2019-04-10T04:13:12.962Z,63.20
2019-04-10T04:15:44.341Z,63.30
2019-04-10T04:18:15.027Z,63.60
2019-04-10T04:20:45.433Z,63.90
2019-04-10T04:23:15.588Z,64.00
2019-04-10T04:25:46.226Z,64.10
2019-04-10T04:28:16.894Z,64.10
2019-04-10T04:30:47.175Z,63.90
2019-04-10T04:33:17.294Z,64.10
2019-04-10T04:35:47.470Z,64.00
2019-04-10T04:38:17.835Z,64.10
2019-04-10T04:40:48.370Z,64.10
2019-04-10T04:43:18.900Z,63.50
2019-04-10T04:45:49.018Z,63.60
2019-04-10T04:48:19.520Z,63.50
2019-04-10T04:50:50.794Z,63.20
2019-04-10T04:53:21.532Z,63.20
2019-04-10T04:55:53.398Z,63.70
2019-04-10T04:58:24.360Z,63.70
2019-04-10T05:00:54.653Z,63.70
2019-04-10T05:03:25.699Z,63.50
2019-04-10T05:05:56.250Z,63.70
2019-04-10T05:08:26.650Z,63.80
2019-04-10T05:10:57.949Z,63.90
2019-04-10T05:13:28.449Z,64.00
2019-04-10T05:15:59.543Z,63.90
2019-04-10T05:18:29.792Z,64.10
2019-04-10T05:21:00.921Z,64.00
2019-04-10T05:23:31.259Z,64.10
2019-04-10T05:26:02.475Z,64.50
2019-04-10T05:28:32.775Z,64.90
2019-04-10T05:31:03.151Z,65.20
2019-04-10T05:33:33.783Z,65.20
2019-04-10T05:36:04.730Z,65.00
2019-04-10T05:38:35.478Z,65.10
2019-04-10T05:41:06.936Z,65.00
2019-04-10T05:43:38.275Z,65.00
2019-04-10T05:46:08.399Z,64.90
2019-04-10T05:48:38.448Z,65.20
2019-04-10T05:51:09.385Z,64.40
2019-04-10T05:53:40.763Z,64.10
2019-04-10T05:56:11.937Z,64.10
2019-04-10T05:58:42.850Z,64.20
2019-04-10T06:01:13.580Z,65.00
2019-04-10T06:03:45.601Z,64.50
2019-04-10T06:06:16.575Z,64.60
2019-04-10T06:08:47.084Z,64.90
2019-04-10T06:11:18.377Z,64.60
2019-04-10T06:13:48.610Z,64.50
2019-04-10T06:16:19.545Z,64.40
2019-04-10T06:18:49.762Z,65.60
2019-04-10T06:21:20.983Z,65.80
2019-04-10T06:23:51.806Z,65.70
2019-04-10T06:26:23.671Z,66.70
2019-04-10T06:28:54.746Z,65.50
2019-04-10T06:31:24.976Z,65.40
2019-04-10T06:33:56.229Z,65.30
2019-04-10T06:36:27.195Z,65.00
2019-04-10T06:38:57.476Z,65.50
2019-04-10T06:41:27.595Z,66.30
2019-04-10T06:43:57.803Z,66.10
2019-04-10T06:46:28.493Z,66.40
2019-04-10T06:48:58.772Z,66.00
2019-04-10T06:51:29.325Z,65.10
2019-04-10T06:54:06.768Z,64.50
2019-04-10T06:56:33.359Z,63.60
2019-04-10T06:59:04.594Z,62.40
2019-04-10T07:01:40.557Z,60.60
2019-04-10T07:04:08.019Z,59.80
2019-04-10T07:06:49.917Z,58.80
2019-04-10T07:09:11.927Z,58.10
2019-04-10T07:11:42.986Z,57.30
2019-04-10T07:14:14.275Z,57.20
2019-04-10T07:16:45.756Z,56.10
2019-04-10T07:19:15.978Z,55.90
2019-04-10T07:21:47.075Z,55.30
2019-04-10T07:24:17.344Z,54.60
2019-04-10T07:26:49.369Z,54.10
2019-04-10T07:29:26.155Z,54.10
2019-04-10T07:31:53.333Z,53.80
2019-04-10T07:34:25.546Z,53.50
2019-04-10T07:36:55.987Z,52.80
2019-04-10T07:39:29.522Z,52.40
2019-04-10T07:41:57.983Z,52.10
2019-04-10T07:44:28.133Z,51.60
2019-04-10T07:46:59.765Z,52.00
2019-04-10T07:49:31.415Z,51.30
2019-04-10T07:52:03.571Z,50.80
2019-04-10T07:54:35.045Z,50.10
2019-04-10T07:57:06.231Z,49.30
2019-04-10T07:59:37.513Z,48.90
2019-04-10T08:02:09.797Z,47.70
2019-04-10T08:04:39.843Z,47.30
2019-04-10T08:07:10.061Z,46.90
2019-04-10T08:09:40.287Z,46.80
2019-04-10T08:12:11.336Z,47.20
2019-04-10T08:14:42.262Z,45.90
2019-04-10T08:17:12.488Z,45.30
2019-04-10T08:19:43.160Z,45.60
2019-04-10T08:22:14.427Z,44.90
2019-04-10T08:24:46.196Z,44.50
2019-04-10T08:27:17.142Z,44.50
2019-04-10T08:29:48.459Z,44.10
2019-04-10T08:32:19.041Z,44.80
2019-04-10T08:34:50.230Z,45.40
2019-04-10T08:37:21.038Z,45.00
2019-04-10T08:39:52.581Z,44.50
2019-04-10T08:42:23.004Z,44.40
2019-04-10T08:44:54.179Z,43.60
2019-04-10T08:47:24.868Z,43.40
2019-04-10T08:49:55.083Z,43.40
2019-04-10T08:52:25.313Z,43.40
2019-04-10T08:54:55.441Z,42.60
2019-04-10T08:57:25.668Z,41.40
2019-04-10T08:59:56.322Z,40.20
2019-04-10T09:02:26.413Z,39.80
2019-04-10T09:04:57.354Z,40.20
2019-04-10T09:07:30.647Z,41.80
2019-04-10T09:10:01.740Z,42.10
2019-04-10T09:12:32.116Z,41.30
2019-04-10T09:15:02.494Z,40.50
2019-04-10T09:17:33.406Z,41.20
2019-04-10T09:20:06.648Z,41.30
2019-04-10T09:22:55.151Z,41.50
2019-04-10T09:25:09.369Z,41.70
2019-04-10T09:27:39.963Z,41.20
2019-04-10T09:30:11.131Z,41.30
2019-04-10T09:32:42.304Z,41.50
2019-04-10T09:35:12.718Z,42.60
2019-04-10T09:37:43.047Z,42.30
2019-04-10T09:40:14.129Z,42.70
2019-04-10T09:42:45.875Z,43.50
2019-04-10T09:45:17.794Z,43.40
2019-04-10T09:47:48.418Z,43.50
2019-04-10T09:50:19.319Z,43.30
2019-04-10T09:52:50.350Z,43.90
2019-04-10T09:55:20.504Z,43.70
2019-04-10T09:57:51.757Z,44.00
2019-04-10T10:00:23.393Z,44.10
2019-04-10T10:02:54.974Z,44.60
2019-04-10T10:05:25.222Z,45.10
2019-04-10T10:07:56.431Z,44.80
2019-04-10T10:10:26.858Z,44.50
2019-04-10T10:12:57.103Z,44.00
2019-04-10T10:15:27.532Z,44.80
2019-04-10T10:17:59.153Z,44.80
2019-04-10T10:20:30.702Z,44.80
2019-04-10T10:23:01.414Z,43.50
2019-04-10T10:25:33.439Z,43.70
2019-04-10T10:28:03.546Z,44.30
2019-04-10T10:30:33.811Z,44.60
2019-04-10T10:33:05.595Z,44.60
2019-04-10T10:35:35.761Z,43.90
2019-04-10T10:38:07.210Z,43.00
2019-04-10T10:40:37.956Z,43.40
2019-04-10T10:43:08.164Z,42.90
2019-04-10T10:45:39.800Z,43.30
2019-04-10T10:48:11.584Z,43.50
2019-04-10T10:50:43.613Z,42.10
2019-04-10T10:53:14.371Z,43.20
2019-04-10T10:55:45.492Z,42.60
2019-04-10T10:58:15.847Z,42.40
2019-04-10T11:00:45.979Z,41.90
2019-04-10T11:03:16.292Z,41.40
2019-04-10T11:05:47.331Z,41.90
2019-04-10T11:08:17.724Z,42.30
2019-04-10T11:10:53.181Z,42.90
2019-04-10T11:13:19.738Z,42.20
2019-04-10T11:15:50.032Z,41.80
2019-04-10T11:18:20.181Z,41.90
2019-04-10T11:20:50.321Z,42.60
2019-04-10T11:23:20.408Z,43.10
2019-04-10T11:25:50.539Z,43.30
2019-04-10T11:28:21.953Z,45.80
2019-04-10T11:30:53.600Z,47.00
2019-04-10T11:33:24.985Z,56.10
2019-04-10T11:35:55.628Z,58.70
2019-04-10T11:38:27.081Z,59.10
2019-04-10T11:40:59.763Z,60.30
2019-04-10T11:43:30.238Z,61.00
2019-04-10T11:46:02.566Z,58.80
2019-04-10T11:48:32.356Z,57.60
2019-04-10T11:51:03.302Z,60.00
2019-04-10T11:56:05.778Z,62.60
2019-04-10T11:58:43.006Z,59.40
2019-04-10T12:01:08.628Z,63.40
2019-04-10T12:03:45.130Z,62.10
2019-04-10T12:06:11.968Z,63.70
2019-04-10T12:09:08.411Z,64.60
2019-04-10T12:11:18.755Z,65.00
2019-04-10T12:13:46.466Z,64.00
2019-04-10T12:16:16.866Z,61.50
2019-04-10T12:18:47.425Z,60.50
2019-04-10T12:21:17.765Z,60.10
2019-04-10T12:23:50.079Z,61.80
2019-04-10T12:26:20.031Z,61.00
2019-04-10T12:28:50.259Z,61.00
2019-04-10T12:31:20.481Z,61.40
2019-04-10T12:33:50.740Z,61.40
2019-04-10T12:36:21.215Z,60.20
2019-04-10T12:38:51.930Z,59.80
2019-04-10T12:41:22.186Z,58.90
2019-04-10T12:43:53.458Z,59.10
2019-04-10T12:46:24.448Z,58.40
2019-04-10T12:48:54.999Z,58.80
2019-04-10T12:51:25.663Z,58.50
2019-04-10T12:53:56.212Z,58.50
2019-04-10T12:56:26.590Z,58.10
2019-04-10T12:58:57.222Z,58.10
2019-04-10T13:01:27.548Z,59.40
2019-04-10T13:03:57.908Z,59.80
2019-04-10T13:06:29.668Z,60.00
2019-04-10T13:09:07.387Z,58.90
2019-04-10T13:11:34.285Z,59.10
2019-04-10T13:14:05.109Z,59.70
2019-04-10T13:16:36.172Z,60.10
2019-04-10T13:19:06.991Z,60.40
2019-04-10T13:21:37.206Z,59.70
2019-04-10T13:24:07.335Z,61.50
2019-04-10T13:26:37.778Z,60.60
2019-04-10T13:29:08.078Z,61.50
2019-04-10T13:31:38.317Z,61.70
2019-04-10T13:34:09.015Z,62.50
2019-04-10T13:36:39.722Z,62.70
2019-04-10T13:39:13.062Z,63.30
2019-04-10T13:41:44.930Z,63.00
2019-04-10T13:44:16.217Z,62.60
2019-04-10T13:46:46.493Z,63.40
2019-04-10T13:49:17.722Z,63.20
2019-04-10T13:51:47.850Z,63.10
2019-04-10T13:54:18.868Z,62.40
2019-04-10T13:56:49.613Z,62.50
2019-04-10T13:59:20.674Z,62.70
2019-04-10T14:01:51.983Z,61.50
2019-04-10T14:04:22.904Z,61.40
2019-04-10T14:06:55.618Z,61.60
2019-04-10T14:09:36.901Z,61.10
2019-04-10T14:11:57.723Z,61.40
2019-04-10T14:14:28.722Z,59.90
2019-04-10T14:16:59.335Z,59.70
2019-04-10T14:19:30.056Z,59.80
2019-04-10T14:22:00.148Z,60.10
2019-04-10T14:24:40.425Z,58.30
2019-04-10T14:27:09.868Z,57.30
2019-04-10T14:29:40.767Z,56.80
2019-04-10T14:32:13.373Z,57.70
2019-04-10T14:34:43.648Z,57.50
2019-04-10T14:37:13.869Z,55.40
2019-04-10T14:42:14.215Z,55.00
2019-04-10T14:44:44.524Z,56.00
2019-04-10T14:47:15.169Z,56.50
2019-04-10T14:49:46.208Z,56.50
2019-04-10T14:52:16.911Z,56.50
2019-04-10T14:54:48.201Z,56.50
2019-04-10T14:57:18.938Z,56.40
2019-04-10T14:59:49.361Z,57.70
2019-04-10T15:02:22.178Z,58.00
2019-04-10T15:04:53.216Z,57.80
2019-04-10T15:07:23.755Z,58.00
2019-04-10T15:09:54.027Z,58.10
2019-04-10T15:12:24.700Z,58.70
2019-04-10T15:14:56.144Z,56.80
2019-04-10T15:17:26.377Z,56.50
2019-04-10T15:19:56.600Z,56.10
2019-04-10T15:22:27.624Z,56.00
2019-04-10T15:24:57.920Z,55.10
2019-04-10T15:27:29.167Z,54.90
2019-04-10T15:29:59.489Z,55.30
2019-04-10T15:32:29.608Z,54.00
2019-04-10T15:34:59.939Z,53.80
2019-04-10T15:37:31.301Z,53.70
2019-04-10T15:40:12.223Z,54.20
2019-04-10T15:42:34.293Z,55.60
2019-04-10T15:45:07.042Z,55.70
2019-04-10T15:47:37.496Z,56.20
2019-04-10T15:50:08.552Z,55.20
2019-04-10T15:52:39.634Z,55.20
2019-04-10T15:55:11.180Z,54.40
2019-04-10T15:57:47.729Z,55.30
2019-04-10T16:00:13.713Z,54.10
2019-04-10T16:02:44.757Z,54.00
2019-04-10T16:05:15.428Z,54.00
2019-04-10T16:07:46.697Z,54.00
2019-04-10T16:10:19.043Z,53.40
2019-04-10T16:12:49.876Z,53.60
2019-04-10T16:15:21.461Z,54.60
2019-04-10T16:17:54.600Z,54.40
2019-04-10T16:20:27.318Z,54.10
2019-04-10T16:23:14.370Z,52.90
2019-04-10T16:25:50.189Z,51.60
2019-04-10T16:28:22.772Z,52.00
2019-04-10T16:30:53.355Z,52.50
2019-04-10T16:33:23.577Z,51.80
2019-04-10T16:35:54.706Z,51.50
2019-04-10T16:38:25.148Z,51.40
2019-04-10T16:40:56.235Z,50.70
2019-04-10T16:43:26.616Z,51.80
2019-04-10T16:45:57.289Z,50.90
2019-04-10T16:48:28.269Z,50.70
2019-04-10T16:50:59.685Z,50.40
2019-04-10T16:53:29.975Z,50.40
2019-04-10T16:56:01.032Z,50.10
2019-04-10T16:58:32.248Z,50.60
2019-04-10T17:01:02.573Z,49.90
2019-04-10T17:03:33.780Z,50.00
2019-04-10T17:06:04.073Z,50.20
2019-04-10T17:08:37.349Z,50.40
2019-04-10T17:11:09.091Z,48.80
2019-04-10T17:13:40.383Z,49.40
2019-04-10T17:16:10.867Z,48.50
2019-04-10T17:18:41.351Z,48.60
2019-04-10T17:21:11.618Z,48.80
2019-04-10T17:23:42.747Z,49.10
2019-04-10T17:26:13.396Z,48.90
2019-04-10T17:28:44.761Z,50.10
2019-04-10T17:31:16.244Z,49.70
2019-04-10T17:33:47.464Z,49.50
2019-04-10T17:36:18.852Z,50.90
2019-04-10T17:38:49.118Z,51.00
2019-04-10T17:41:19.771Z,50.90
2019-04-10T17:43:50.068Z,50.30
2019-04-10T17:46:20.291Z,51.20
2019-04-10T17:48:51.661Z,51.50
2019-04-10T17:51:22.051Z,51.70
2019-04-10T17:53:53.607Z,50.70
2019-04-10T17:56:24.230Z,51.60
2019-04-10T17:58:54.574Z,50.70
2019-04-10T18:01:27.058Z,50.70
2019-04-10T18:04:01.339Z,50.80
2019-04-10T18:06:29.233Z,50.30
2019-04-10T18:08:59.587Z,51.30
2019-04-10T18:11:30.082Z,52.80
2019-04-10T18:14:00.822Z,51.00
2019-04-10T18:16:31.735Z,50.60
2019-04-10T18:19:02.257Z,51.60
2019-04-10T18:21:32.973Z,51.20
2019-04-10T18:24:04.153Z,51.40
2019-04-10T18:26:34.491Z,53.20
2019-04-10T18:29:05.796Z,53.80
2019-04-10T18:31:36.785Z,53.80
2019-04-10T18:34:09.708Z,52.60
2019-04-10T18:36:38.860Z,52.40
2019-04-10T18:39:12.762Z,51.80
2019-04-10T18:41:42.991Z,51.60
2019-04-10T18:44:13.099Z,51.10
2019-04-10T18:46:43.766Z,51.90
2019-04-10T18:49:14.169Z,51.90
2019-04-10T18:51:44.392Z,52.10
2019-04-10T18:54:14.511Z,52.50
2019-04-10T18:56:45.111Z,53.00
2019-04-10T18:59:34.339Z,51.90
2019-04-10T19:02:07.467Z,52.70
2019-04-10T19:04:48.064Z,51.70
2019-04-10T19:07:18.593Z,52.10
2019-04-10T19:09:49.060Z,51.60
2019-04-10T19:12:19.345Z,51.90
2019-04-10T19:14:50.820Z,51.60
2019-04-10T19:17:22.467Z,51.70
2019-04-10T19:19:53.749Z,51.00
2019-04-10T19:22:24.348Z,51.40
2019-04-10T19:24:54.846Z,52.80
2019-04-10T19:27:25.532Z,53.00
2019-04-10T19:29:57.029Z,52.10
2019-04-10T19:32:31.143Z,52.00
2019-04-10T19:35:00.977Z,51.90
2019-04-10T19:37:31.087Z,52.30
2019-04-10T19:40:01.106Z,52.50
2019-04-10T19:42:31.429Z,52.60
2019-04-10T19:45:01.809Z,52.90
2019-04-10T19:47:32.624Z,53.70
2019-04-10T19:50:05.374Z,54.50
2019-04-10T19:52:36.198Z,53.50
2019-04-10T19:55:07.439Z,54.20
2019-04-10T19:57:37.676Z,54.00
2019-04-10T20:00:12.515Z,54.70
2019-04-10T20:02:43.580Z,55.20
2019-04-10T20:05:15.015Z,55.80
2019-04-10T20:07:45.324Z,56.40
2019-04-10T20:10:16.999Z,56.30
2019-04-10T20:12:47.312Z,56.40
2019-04-10T20:15:18.452Z,56.60
2019-04-10T20:17:48.572Z,56.90
2019-04-10T20:20:19.361Z,56.10
2019-04-10T20:22:50.102Z,56.10
2019-04-10T20:25:20.566Z,56.70
2019-04-10T20:27:50.686Z,56.80
2019-04-10T20:30:23.708Z,57.90
2019-04-10T20:32:54.439Z,57.90
2019-04-10T20:35:25.147Z,58.20
2019-04-10T20:37:55.564Z,58.10
2019-04-10T20:40:25.990Z,58.60
2019-04-10T20:42:56.307Z,58.80
2019-04-10T20:45:27.443Z,58.70
2019-04-10T20:47:58.193Z,59.10
2019-04-10T20:50:29.944Z,58.50
2019-04-10T20:53:01.895Z,59.10
2019-04-10T20:55:32.118Z,59.40
2019-04-10T20:58:04.979Z,60.00
2019-04-10T21:00:38.931Z,59.40
2019-04-10T21:03:09.354Z,59.20
2019-04-10T21:05:40.193Z,59.50
2019-04-10T21:08:11.599Z,60.10
2019-04-10T21:10:42.811Z,60.00
2019-04-10T21:13:13.319Z,60.60
2019-04-10T21:15:44.311Z,59.70
2019-04-10T21:18:15.327Z,60.40
2019-04-10T21:20:45.619Z,59.40
2019-04-10T21:23:15.742Z,59.00
2019-04-10T21:25:45.859Z,58.70
2019-04-10T21:28:16.314Z,58.90
2019-04-10T21:31:05.518Z,58.80
2019-04-10T21:33:40.794Z,59.50
2019-04-10T21:36:11.367Z,60.10
2019-04-10T21:38:42.735Z,60.10
2019-04-10T21:41:14.197Z,61.00
2019-04-10T21:43:45.196Z,61.80
2019-04-10T21:46:16.481Z,62.30
2019-04-10T21:48:46.864Z,63.20
2019-04-10T21:51:17.161Z,63.30
2019-04-10T21:53:47.361Z,64.20
2019-04-10T21:56:18.054Z,63.90
2019-04-10T21:58:48.545Z,63.10
2019-04-10T22:01:19.106Z,63.80
2019-04-10T22:03:52.559Z,63.40
2019-04-10T22:06:38.175Z,65.30
2019-04-10T22:09:20.816Z,65.20
2019-04-10T22:11:53.156Z,65.50
2019-04-10T22:14:26.004Z,66.30
2019-04-10T22:16:56.449Z,66.40
2019-04-10T22:19:28.340Z,66.60
2019-04-10T22:22:00.031Z,66.90
2019-04-10T22:24:30.300Z,67.00
2019-04-10T22:27:00.867Z,66.70
2019-04-10T22:29:32.638Z,66.60
2019-04-10T22:32:04.112Z,66.40
2019-04-10T22:34:34.456Z,66.90
2019-04-10T22:37:06.329Z,66.60
2019-04-10T22:39:36.660Z,66.40
2019-04-10T22:42:07.531Z,66.80
2019-04-10T22:44:42.325Z,67.20
2019-04-10T22:47:09.647Z,67.50
2019-04-10T22:49:39.780Z,67.70
2019-04-10T22:52:10.855Z,67.70
2019-04-10T22:54:42.223Z,67.80
2019-04-10T22:57:12.582Z,67.80
2019-04-10T22:59:42.717Z,68.10
2019-04-10T23:02:14.673Z,68.40
2019-04-10T23:04:44.930Z,68.50
2019-04-10T23:07:15.326Z,68.70
2019-04-10T23:09:46.530Z,68.90
2019-04-10T23:12:16.795Z,69.00
2019-04-10T23:14:47.119Z,69.00
2019-04-10T23:17:17.549Z,69.00
2019-04-10T23:19:47.667Z,68.90
2019-04-10T23:22:18.612Z,69.00
2019-04-10T23:24:49.036Z,69.20
2019-04-10T23:27:19.817Z,69.30
2019-04-10T23:29:51.013Z,69.10
2019-04-10T23:32:23.540Z,69.40
2019-04-10T23:34:54.763Z,69.70
2019-04-10T23:37:24.954Z,69.60
2019-04-10T23:39:55.075Z,69.80
2019-04-10T23:42:25.487Z,69.00
2019-04-10T23:44:55.623Z,68.70
2019-04-10T23:47:26.282Z,68.80
2019-04-10T23:49:57.499Z,69.40
2019-04-10T23:52:27.724Z,70.10
2019-04-10T23:54:58.056Z,70.00
2019-04-10T23:57:29.493Z,69.90
2019-04-10T23:59:59.717Z,70.20
